createdAt,value
2022-08-03T00:03:46.691Z,17.04
2022-08-03T00:08:51.099Z,17.02
2022-08-03T00:13:54.732Z,17.00
2022-08-03T00:19:00.648Z,17.01
2022-08-03T00:24:04.392Z,17.01
2022-08-03T00:29:07.723Z,17.04
2022-08-03T00:34:12.605Z,17.07
2022-08-03T00:39:15.997Z,17.08
2022-08-03T00:44:19.334Z,17.10
2022-08-03T00:49:24.358Z,17.09
2022-08-03T00:54:27.944Z,16.99
2022-08-03T00:59:32.149Z,16.96
2022-08-03T01:04:36.820Z,16.88
2022-08-03T01:09:53.008Z,16.81
2022-08-03T01:15:04.058Z,16.82
2022-08-03T01:20:10.936Z,16.86
2022-08-03T01:25:26.057Z,16.91
2022-08-03T01:30:34.370Z,16.85
2022-08-03T01:35:44.247Z,16.86
2022-08-03T01:40:49.109Z,16.82
2022-08-03T01:45:55.628Z,16.81
2022-08-03T01:51:01.075Z,16.78
2022-08-03T01:56:07.692Z,16.80
2022-08-03T02:01:14.896Z,16.83
2022-08-03T02:07:01.463Z,16.82
2022-08-03T02:11:43.956Z,16.95
2022-08-03T02:16:51.884Z,16.95
2022-08-03T02:22:01.373Z,17.04
2022-08-03T02:27:09.400Z,17.10
2022-08-03T02:32:18.736Z,17.23
2022-08-03T02:37:27.004Z,17.32
2022-08-03T02:42:33.376Z,17.40
2022-08-03T02:47:53.277Z,17.54
2022-08-03T02:53:00.013Z,17.65
2022-08-03T02:58:04.842Z,17.84
2022-08-03T03:03:11.395Z,18.09
2022-08-03T03:08:20.602Z,18.32
2022-08-03T03:13:25.859Z,18.57
2022-08-03T03:18:32.267Z,19.22
2022-08-03T03:23:37.809Z,19.71
2022-08-03T03:28:41.696Z,20.08
2022-08-03T03:33:46.809Z,20.44
2022-08-03T03:38:50.307Z,20.86
2022-08-03T03:43:57.342Z,21.33
2022-08-03T03:49:02.137Z,22.08
2022-08-03T03:54:07.116Z,22.58
2022-08-03T03:59:10.747Z,24.60
2022-08-03T04:04:32.687Z,26.63
2022-08-03T04:09:54.945Z,29.58
2022-08-03T04:15:04.346Z,31.59
2022-08-03T04:20:11.014Z,32.85
2022-08-03T04:25:19.616Z,33.61
2022-08-03T04:30:24.295Z,34.10
2022-08-03T04:35:58.554Z,34.07
2022-08-03T04:40:58.501Z,36.29
2022-08-03T04:46:03.836Z,37.87
2022-08-03T04:51:08.642Z,39.29
2022-08-03T04:56:12.115Z,40.48
2022-08-03T05:01:16.023Z,42.00
2022-08-03T05:06:20.744Z,42.28
2022-08-03T05:11:29.161Z,42.91
2022-08-03T05:16:32.622Z,44.14
2022-08-03T05:21:50.290Z,45.59
2022-08-03T05:26:56.101Z,46.90
2022-08-03T05:31:59.472Z,47.04
2022-08-03T05:37:04.311Z,47.08
2022-08-03T05:42:07.708Z,48.80
2022-08-03T05:47:11.205Z,49.74
2022-08-03T05:52:16.704Z,49.03
2022-08-03T05:57:20.751Z,46.75
2022-08-03T06:02:25.030Z,45.51
2022-08-03T06:07:30.471Z,45.41
2022-08-03T06:12:36.265Z,45.61
2022-08-03T06:17:47.303Z,44.40
2022-08-03T06:23:00.199Z,44.29
2022-08-03T06:28:05.331Z,45.39
2022-08-03T06:33:08.803Z,46.03
2022-08-03T06:38:13.579Z,44.94
2022-08-03T06:43:16.863Z,44.35
2022-08-03T06:48:20.204Z,44.47
2022-08-03T06:53:25.010Z,45.29
2022-08-03T06:58:28.395Z,45.88
2022-08-03T07:03:31.732Z,45.27
2022-08-03T07:08:37.808Z,46.15
2022-08-03T07:13:42.250Z,45.17
2022-08-03T07:18:45.556Z,47.73
2022-08-03T07:23:50.216Z,49.81
2022-08-03T07:28:53.685Z,48.16
2022-08-03T07:33:57.076Z,48.56
2022-08-03T07:39:01.901Z,47.99
2022-08-03T07:44:20.857Z,48.01
2022-08-03T07:49:24.231Z,47.56
2022-08-03T07:54:29.071Z,46.82
2022-08-03T07:59:56.640Z,45.01
2022-08-03T08:04:56.017Z,43.03
2022-08-03T08:10:00.726Z,44.84
2022-08-03T08:15:04.371Z,44.87
2022-08-03T08:20:08.692Z,42.98
2022-08-03T08:25:13.851Z,42.54
2022-08-03T08:30:19.868Z,42.42
2022-08-03T08:35:23.226Z,42.35
2022-08-03T08:40:29.107Z,40.48
2022-08-03T08:45:32.905Z,38.86
2022-08-03T08:50:38.700Z,37.51
2022-08-03T08:55:58.275Z,36.92
2022-08-03T09:01:04.222Z,36.89
2022-08-03T09:06:08.095Z,36.83
2022-08-03T09:11:13.084Z,37.07
2022-08-03T09:16:18.768Z,36.71
2022-08-03T09:21:32.962Z,36.41
2022-08-03T09:26:39.531Z,36.35
2022-08-03T09:31:45.349Z,35.57
2022-08-03T09:36:50.457Z,34.72
2022-08-03T09:42:09.666Z,34.43
2022-08-03T09:47:14.954Z,34.32
2022-08-03T09:52:38.063Z,33.86
2022-08-03T09:57:46.532Z,33.21
2022-08-03T10:02:50.786Z,33.53
2022-08-03T10:07:54.098Z,33.62
2022-08-03T10:12:58.852Z,33.98
2022-08-03T10:18:02.380Z,34.25
2022-08-03T10:23:06.674Z,34.65
2022-08-03T10:28:14.521Z,34.39
2022-08-03T10:33:51.983Z,33.62
2022-08-03T10:38:52.744Z,32.81
2022-08-03T10:44:04.180Z,32.23
2022-08-03T10:49:09.168Z,32.60
2022-08-03T10:55:00.757Z,32.81
2022-08-03T11:00:11.713Z,32.80
2022-08-03T11:05:28.614Z,32.72
2022-08-03T11:10:32.977Z,32.76
2022-08-03T11:15:38.859Z,32.84
2022-08-03T11:20:46.994Z,32.22
2022-08-03T11:26:12.444Z,32.33
2022-08-03T11:31:52.002Z,33.17
2022-08-03T11:37:26.375Z,32.78
2022-08-03T11:42:47.494Z,33.17
2022-08-03T11:47:56.707Z,33.30
2022-08-03T11:53:00.330Z,32.89
2022-08-03T11:59:13.191Z,33.05
2022-08-03T12:03:34.407Z,33.10
2022-08-03T12:08:37.918Z,32.51
2022-08-03T12:14:44.308Z,32.19
2022-08-03T12:19:08.349Z,32.13
2022-08-03T12:24:12.390Z,31.78
2022-08-03T12:29:18.597Z,31.61
2022-08-03T12:34:23.374Z,31.66
2022-08-03T12:39:30.876Z,31.70
2022-08-03T12:44:36.747Z,31.84
2022-08-03T12:49:49.014Z,32.16
2022-08-03T12:54:59.669Z,31.97
2022-08-03T13:00:21.644Z,32.13
2022-08-03T13:05:44.283Z,32.01
2022-08-03T13:10:47.944Z,32.02
2022-08-03T13:15:52.343Z,32.06
2022-08-03T13:20:57.090Z,31.79
2022-08-03T13:26:01.191Z,31.37
2022-08-03T13:31:04.815Z,31.16
2022-08-03T13:36:11.889Z,31.37
2022-08-03T13:41:15.550Z,31.22
2022-08-03T13:46:20.483Z,31.30
2022-08-03T13:51:25.295Z,30.96
2022-08-03T13:56:28.851Z,30.89
2022-08-03T14:01:54.027Z,30.67
2022-08-03T14:06:56.695Z,30.89
2022-08-03T14:12:03.994Z,30.96
2022-08-03T14:17:12.303Z,30.92
2022-08-03T14:22:17.086Z,30.87
2022-08-03T14:27:20.553Z,30.90
2022-08-03T14:32:24.079Z,30.71
2022-08-03T14:37:28.890Z,30.53
2022-08-03T14:42:32.366Z,30.61
2022-08-03T14:49:02.643Z,30.33
2022-08-03T14:53:00.266Z,30.35
2022-08-03T14:58:19.358Z,30.31
2022-08-03T15:03:25.634Z,30.40
2022-08-03T15:08:30.380Z,30.23
2022-08-03T15:13:33.804Z,30.16
2022-08-03T15:18:37.161Z,30.02
2022-08-03T15:23:41.920Z,29.93
2022-08-03T15:28:45.322Z,29.82
2022-08-03T15:33:50.849Z,29.71
2022-08-03T15:38:55.697Z,29.48
2022-08-03T15:43:59.252Z,29.29
2022-08-03T15:49:02.613Z,29.10
2022-08-03T15:54:08.030Z,29.02
2022-08-03T15:59:13.864Z,28.82
2022-08-03T16:04:17.706Z,28.74
2022-08-03T16:09:23.471Z,28.62
2022-08-03T16:14:54.189Z,28.34
2022-08-03T16:19:58.914Z,28.11
2022-08-03T16:25:04.699Z,27.93
2022-08-03T16:30:17.788Z,27.76
2022-08-03T16:35:21.386Z,27.58
2022-08-03T16:40:27.407Z,27.47
2022-08-03T16:45:30.945Z,27.36
2022-08-03T16:50:34.421Z,27.27
2022-08-03T16:55:48.962Z,27.11
2022-08-03T17:00:57.494Z,26.98
2022-08-03T17:06:03.939Z,26.82
2022-08-03T17:11:10.131Z,26.73
2022-08-03T17:16:15.590Z,26.58
2022-08-03T17:21:23.905Z,26.38
2022-08-03T17:26:30.494Z,26.23
2022-08-03T17:31:48.459Z,26.07
2022-08-03T17:37:26.898Z,25.86
2022-08-03T17:42:30.214Z,25.74
2022-08-03T17:47:42.443Z,25.59
2022-08-03T17:52:50.282Z,25.51
2022-08-03T17:58:03.279Z,25.41
2022-08-03T18:03:18.192Z,25.28
2022-08-03T18:08:28.401Z,25.23
2022-08-03T18:13:40.875Z,25.05
2022-08-03T18:18:48.683Z,24.85
2022-08-03T18:23:55.835Z,24.88
2022-08-03T18:29:06.233Z,24.68
2022-08-03T18:34:32.289Z,24.57
2022-08-03T18:39:50.217Z,24.48
2022-08-03T18:44:57.462Z,24.41
2022-08-03T18:50:10.818Z,24.29
2022-08-03T18:55:32.807Z,24.19
2022-08-03T19:00:56.525Z,24.10
2022-08-03T19:06:14.673Z,23.99
2022-08-03T19:11:28.074Z,23.91
2022-08-03T19:16:39.434Z,23.83
2022-08-03T19:21:44.645Z,23.74
2022-08-03T19:26:52.115Z,23.71
2022-08-03T19:31:59.377Z,23.73
2022-08-03T19:37:04.865Z,23.73
2022-08-03T19:42:22.909Z,23.77
2022-08-03T19:47:31.488Z,23.74
2022-08-03T19:52:37.253Z,23.66
2022-08-03T19:57:43.637Z,23.63
2022-08-03T20:02:51.763Z,23.60
2022-08-03T20:07:56.163Z,23.64
2022-08-03T20:13:00.831Z,23.61
2022-08-03T20:18:08.265Z,23.58
2022-08-03T20:23:21.335Z,23.49
2022-08-03T20:28:30.153Z,23.42
2022-08-03T20:33:46.212Z,23.32
2022-08-03T20:38:57.278Z,23.24
2022-08-03T20:44:02.193Z,23.10
2022-08-03T20:49:06.970Z,23.04
2022-08-03T20:54:22.687Z,22.93
2022-08-03T20:59:50.460Z,22.90
2022-08-03T21:04:56.017Z,22.85
2022-08-03T21:10:04.105Z,22.86
2022-08-03T21:16:11.742Z,22.79
2022-08-03T21:20:44.687Z,22.78
2022-08-03T21:25:50.982Z,22.76
2022-08-03T21:30:56.194Z,22.70
2022-08-03T21:36:03.488Z,22.70
2022-08-03T21:41:08.886Z,22.56
2022-08-03T21:46:14.232Z,22.54
2022-08-03T21:51:21.265Z,22.53
2022-08-03T21:56:25.095Z,22.46
2022-08-03T22:01:34.469Z,22.36
2022-08-03T22:06:42.529Z,22.23
2022-08-03T22:11:48.034Z,21.97
2022-08-03T22:16:51.317Z,21.66
2022-08-03T22:21:56.206Z,21.45
2022-08-03T22:27:19.821Z,21.26
2022-08-03T22:32:23.409Z,21.07
2022-08-03T22:37:30.836Z,20.93
2022-08-03T22:42:35.265Z,20.84
2022-08-03T22:47:40.402Z,20.71
2022-08-03T22:52:46.096Z,20.60
2022-08-03T22:57:50.973Z,20.55
2022-08-03T23:03:03.344Z,20.43
2022-08-03T23:08:10.959Z,20.36
2022-08-03T23:13:15.475Z,20.29
2022-08-03T23:18:20.530Z,20.18
2022-08-03T23:23:25.594Z,20.20
2022-08-03T23:28:31.804Z,20.18
2022-08-03T23:33:36.426Z,20.20
2022-08-03T23:38:41.407Z,20.19
2022-08-03T23:43:52.042Z,20.26
2022-08-03T23:49:01.103Z,20.44
2022-08-03T23:54:17.334Z,20.49
2022-08-03T23:59:29.892Z,20.49
